West Peoria, Illinois
Current Conditions -  °F | °C
As of 8:18 AM on Friday 24 Oct 2014 (Local Time) from KPIA Reporting Station
Haze Haze  
Wind Chill: 51°   Ceiling: 200
Heat Index: 51°   Visibility: 1mi
Dew Point: 47°   Wind: 0mph
Humidity: 86%   Direction: NA
Pressure: 30.08"   Gusts: NA
Location:  40.7064°N, 89.6585°W
Report Text: KPIA 241318Z 00000KT 1SM R13/P6000FT BR OVC002 11/08 A3008 RMK AO2 T01060083
Loading
Personal Weather Stations






























Interactive Weather Map
Tropical Storm Tracking
New forecast layout! Learn more

10-Day Weather Forecast

Advertisements
Track Severe Weather on mobile